createdAt,value
2017-05-25T00:01:44.880Z,5.78
2017-05-25T00:04:11.818Z,6.80
2017-05-25T00:06:40.400Z,5.88
2017-05-25T00:09:08.909Z,7.50
2017-05-25T00:11:35.870Z,6.12
2017-05-25T00:14:03.748Z,6.54
2017-05-25T00:16:31.240Z,5.98
2017-05-25T00:18:58.188Z,6.82
2017-05-25T00:21:28.205Z,6.48
2017-05-25T00:23:57.212Z,7.42
2017-05-25T00:26:25.096Z,7.30
2017-05-25T00:28:52.114Z,8.04
2017-05-25T00:31:20.944Z,6.68
2017-05-25T00:33:48.274Z,6.52
2017-05-25T00:36:16.044Z,7.02
2017-05-25T00:48:34.692Z,6.36
2017-05-25T00:51:02.477Z,5.02
2017-05-25T00:53:29.463Z,6.22
2017-05-25T00:55:56.507Z,6.28
2017-05-25T00:58:25.305Z,6.62
2017-05-25T01:00:53.203Z,7.50
2017-05-25T01:03:21.318Z,7.34
2017-05-25T01:05:48.278Z,7.68
2017-05-25T01:08:15.844Z,8.40
2017-05-25T01:10:44.238Z,6.52
2017-05-25T01:13:13.833Z,7.10
2017-05-25T01:15:42.516Z,6.96
2017-05-25T01:18:10.475Z,7.56
2017-05-25T01:20:39.164Z,8.26
2017-05-25T01:23:06.555Z,7.92
2017-05-25T01:25:34.748Z,8.30
2017-05-25T01:28:05.296Z,7.44
2017-05-25T01:30:34.501Z,7.60
2017-05-25T01:33:04.528Z,7.58
2017-05-25T01:35:33.352Z,7.98
2017-05-25T01:38:00.526Z,7.90
2017-05-25T01:40:30.827Z,7.40
2017-05-25T01:42:58.482Z,8.18
2017-05-25T01:45:27.691Z,7.90
2017-05-25T01:47:58.212Z,9.24
2017-05-25T01:50:28.957Z,8.80
2017-05-25T01:52:57.978Z,7.72
2017-05-25T01:55:25.588Z,7.42
2017-05-25T01:57:52.535Z,8.56
2017-05-25T02:00:19.881Z,7.42
2017-05-25T02:02:47.882Z,7.64
2017-05-25T02:05:16.079Z,6.42
2017-05-25T02:07:45.597Z,7.22
2017-05-25T02:10:13.818Z,7.08
2017-05-25T02:12:40.827Z,6.58
2017-05-25T02:15:08.975Z,8.86
2017-05-25T02:17:37.304Z,8.44
2017-05-25T02:20:06.487Z,10.12
2017-05-25T02:22:34.263Z,9.08
2017-05-25T02:25:01.784Z,8.14
2017-05-25T02:27:29.588Z,10.20
2017-05-25T02:29:57.472Z,8.90
2017-05-25T02:32:27.967Z,8.38
2017-05-25T02:34:57.864Z,8.64
2017-05-25T02:37:25.539Z,9.04
2017-05-25T02:39:52.540Z,7.78
2017-05-25T02:42:19.451Z,7.92
2017-05-25T02:44:48.379Z,8.44
2017-05-25T02:47:16.290Z,7.20
2017-05-25T02:49:44.228Z,8.90
2017-05-25T02:52:11.192Z,7.98
2017-05-25T02:54:39.082Z,6.78
2017-05-25T02:57:07.888Z,7.20
2017-05-25T02:59:36.523Z,8.66
2017-05-25T03:02:05.210Z,10.56
2017-05-25T03:04:34.522Z,6.84
2017-05-25T03:07:01.963Z,8.90
2017-05-25T03:09:30.240Z,7.24
2017-05-25T03:12:00.142Z,6.98
2017-05-25T03:14:27.066Z,10.66
2017-05-25T03:16:54.047Z,9.34
2017-05-25T03:19:21.495Z,8.40
2017-05-25T03:21:48.476Z,9.46
2017-05-25T03:24:15.466Z,8.06
2017-05-25T03:26:45.255Z,8.80
2017-05-25T03:29:13.871Z,9.22
2017-05-25T03:31:40.827Z,8.92
2017-05-25T03:34:10.783Z,6.24
2017-05-25T03:36:37.720Z,6.54
2017-05-25T03:39:04.674Z,7.60
2017-05-25T03:41:34.529Z,7.30
2017-05-25T03:44:02.309Z,8.44
2017-05-25T03:46:30.527Z,7.52
2017-05-25T03:48:57.767Z,7.34
2017-05-25T03:51:25.353Z,7.42
2017-05-25T03:53:53.636Z,7.12
2017-05-25T03:56:20.664Z,7.50
2017-05-25T03:58:47.995Z,7.04
2017-05-25T04:01:16.414Z,6.94
2017-05-25T04:03:45.858Z,6.76
2017-05-25T04:06:14.858Z,6.98
2017-05-25T04:08:43.561Z,6.00
2017-05-25T04:11:10.933Z,6.28
2017-05-25T04:13:38.061Z,7.28
2017-05-25T04:16:04.993Z,8.56
2017-05-25T04:18:35.980Z,7.60
2017-05-25T04:21:03.779Z,8.62
2017-05-25T04:23:31.524Z,6.44
2017-05-25T04:25:59.454Z,7.98
2017-05-25T04:28:26.361Z,6.50
2017-05-25T04:30:55.096Z,6.08
2017-05-25T04:33:23.837Z,6.84
2017-05-25T04:35:53.602Z,7.10
2017-05-25T04:38:24.055Z,6.52
2017-05-25T04:40:52.796Z,6.88
2017-05-25T04:43:20.660Z,5.92
2017-05-25T04:45:50.940Z,5.74
2017-05-25T04:48:18.288Z,5.72
2017-05-25T04:50:46.284Z,5.38
2017-05-25T04:53:14.360Z,7.20
2017-05-25T04:55:42.583Z,6.30
2017-05-25T04:58:11.369Z,7.58
2017-05-25T05:00:39.237Z,8.04
2017-05-25T05:03:06.749Z,7.24
2017-05-25T05:05:38.352Z,8.58
2017-05-25T05:08:06.116Z,7.20
2017-05-25T05:10:34.719Z,7.14
2017-05-25T05:13:02.688Z,7.40
2017-05-25T05:15:34.309Z,7.76
2017-05-25T05:18:01.356Z,8.74
2017-05-25T05:20:29.215Z,7.28
2017-05-25T05:22:56.217Z,7.80
2017-05-25T05:25:25.195Z,7.70
2017-05-25T05:27:56.031Z,8.20
2017-05-25T05:30:26.983Z,8.04
2017-05-25T05:32:54.831Z,7.10
2017-05-25T05:35:21.726Z,7.52
2017-05-25T05:37:50.355Z,6.76
2017-05-25T05:40:19.096Z,6.70
2017-05-25T05:42:46.472Z,6.60
2017-05-25T05:45:14.694Z,7.10
2017-05-25T05:47:41.712Z,6.72
2017-05-25T05:50:10.391Z,6.88
2017-05-25T05:52:38.276Z,6.74
2017-05-25T05:55:06.571Z,5.94
2017-05-25T05:57:34.183Z,6.62
2017-05-25T06:00:01.936Z,5.90
2017-05-25T06:02:29.162Z,5.70
2017-05-25T06:04:56.894Z,6.70
2017-05-25T06:07:24.873Z,6.08
2017-05-25T06:09:51.785Z,6.10
2017-05-25T06:12:20.794Z,5.72
2017-05-25T06:14:49.692Z,6.22
2017-05-25T06:17:16.688Z,5.72
2017-05-25T06:19:43.648Z,5.82
2017-05-25T06:22:12.927Z,6.18
2017-05-25T06:24:39.839Z,4.88
2017-05-25T06:27:08.229Z,4.32
2017-05-25T06:29:36.131Z,5.18
2017-05-25T06:32:06.571Z,5.68
2017-05-25T06:34:35.437Z,5.86
2017-05-25T06:37:04.599Z,5.76
2017-05-25T06:39:33.812Z,4.80
2017-05-25T06:42:02.001Z,5.30
2017-05-25T06:44:29.827Z,5.96
2017-05-25T06:46:57.931Z,4.98
2017-05-25T06:49:25.802Z,4.50
2017-05-25T06:51:53.684Z,6.12
2017-05-25T06:54:21.906Z,3.64
2017-05-25T06:56:49.475Z,4.86
2017-05-25T06:59:17.433Z,5.28
2017-05-25T07:01:47.456Z,4.84
2017-05-25T07:04:16.797Z,5.64
2017-05-25T07:06:46.033Z,4.00
2017-05-25T07:09:14.310Z,4.04
2017-05-25T07:11:44.093Z,4.32
2017-05-25T07:14:11.033Z,5.02
2017-05-25T07:16:38.341Z,3.70
2017-05-25T07:19:06.074Z,4.40
2017-05-25T07:21:33.285Z,2.90
2017-05-25T07:24:02.142Z,4.48
2017-05-25T07:26:29.250Z,3.72
2017-05-25T07:28:56.593Z,4.22
2017-05-25T07:31:23.596Z,5.08
2017-05-25T07:33:50.592Z,4.80
2017-05-25T07:36:17.544Z,4.34
2017-05-25T07:38:44.800Z,4.16
2017-05-25T07:41:11.959Z,4.78
2017-05-25T07:43:41.132Z,3.18
2017-05-25T07:46:09.696Z,4.34
2017-05-25T07:48:37.488Z,3.84
2017-05-25T07:51:05.645Z,4.12
2017-05-25T07:53:34.179Z,3.10
2017-05-25T07:56:02.377Z,3.72
2017-05-25T07:58:29.253Z,3.80
2017-05-25T08:00:56.481Z,3.18
2017-05-25T08:03:23.440Z,3.10
2017-05-25T08:05:50.422Z,5.48
2017-05-25T08:08:17.478Z,4.66
2017-05-25T08:10:45.330Z,3.20
2017-05-25T08:13:12.263Z,4.92
2017-05-25T08:15:43.645Z,5.40
2017-05-25T08:18:12.291Z,3.88
2017-05-25T08:20:40.362Z,3.88
2017-05-25T08:23:10.476Z,4.20
2017-05-25T08:25:38.673Z,4.24
2017-05-25T08:28:06.018Z,3.72
2017-05-25T08:30:33.644Z,3.44
2017-05-25T08:33:00.579Z,4.10
2017-05-25T08:35:27.985Z,3.12
2017-05-25T08:37:56.614Z,3.08
2017-05-25T08:40:23.818Z,2.80
2017-05-25T08:42:52.003Z,3.30
2017-05-25T08:45:20.743Z,2.48
2017-05-25T08:47:48.776Z,2.56
2017-05-25T08:50:16.027Z,2.14
2017-05-25T08:52:44.270Z,2.62
2017-05-25T08:55:11.207Z,2.46
2017-05-25T08:57:40.076Z,2.30
2017-05-25T09:00:08.354Z,2.78
2017-05-25T09:02:35.292Z,2.50
2017-05-25T09:05:02.264Z,1.90
2017-05-25T09:07:29.203Z,2.40
2017-05-25T09:09:57.070Z,2.30
2017-05-25T09:12:24.301Z,2.20
2017-05-25T09:14:52.443Z,2.12
2017-05-25T09:17:23.297Z,2.02
2017-05-25T09:19:50.257Z,2.24
2017-05-25T09:22:18.044Z,2.40
2017-05-25T09:24:48.117Z,1.82
2017-05-25T09:27:15.741Z,1.96
2017-05-25T09:29:43.034Z,2.06
2017-05-25T09:32:10.106Z,1.94
2017-05-25T09:34:37.017Z,1.82
2017-05-25T09:37:03.931Z,2.06
2017-05-25T09:39:32.378Z,1.70
2017-05-25T09:42:00.349Z,1.88
2017-05-25T09:44:28.842Z,1.90
2017-05-25T09:46:55.768Z,1.88
2017-05-25T09:49:23.799Z,1.68
2017-05-25T09:51:51.776Z,2.20
2017-05-25T09:54:18.708Z,1.76
2017-05-25T09:56:45.707Z,1.50
2017-05-25T09:59:13.412Z,2.22
2017-05-25T10:01:40.356Z,1.90
2017-05-25T10:04:10.298Z,1.54
2017-05-25T10:06:37.303Z,1.70
2017-05-25T10:22:11.126Z,1.60
2017-05-25T10:24:38.120Z,1.60
2017-05-25T10:27:05.067Z,1.56
2017-05-25T10:29:33.125Z,1.64
2017-05-25T10:32:00.076Z,1.16
2017-05-25T10:34:27.081Z,1.36
2017-05-25T10:36:54.090Z,1.40
2017-05-25T10:39:23.550Z,1.30
2017-05-25T10:41:50.466Z,1.80
2017-05-25T10:44:19.397Z,1.60
2017-05-25T10:46:46.396Z,1.54
2017-05-25T10:49:13.356Z,1.72
2017-05-25T10:51:41.956Z,1.80
2017-05-25T10:54:09.841Z,1.54
2017-05-25T10:56:38.761Z,1.44
2017-05-25T10:59:07.935Z,1.60
2017-05-25T11:01:35.835Z,1.40
2017-05-25T11:04:03.118Z,1.24
2017-05-25T11:06:30.115Z,1.88
2017-05-25T11:08:57.911Z,1.48
2017-05-25T11:11:24.818Z,1.70
2017-05-25T11:13:51.785Z,1.12
2017-05-25T11:16:21.897Z,1.36
2017-05-25T11:18:48.817Z,1.46
2017-05-25T11:21:19.139Z,1.44
2017-05-25T11:23:48.680Z,1.30
2017-05-25T11:26:17.918Z,1.78
2017-05-25T11:28:44.900Z,1.14
2017-05-25T11:31:13.556Z,1.42
2017-05-25T11:33:41.507Z,1.30
2017-05-25T11:36:09.727Z,1.60
2017-05-25T11:38:36.664Z,1.74
2017-05-25T11:41:03.576Z,1.50
2017-05-25T11:43:31.210Z,1.40
2017-05-25T11:45:58.371Z,1.66
2017-05-25T11:48:25.859Z,1.14
2017-05-25T11:50:54.656Z,1.38
2017-05-25T11:53:21.673Z,1.54
2017-05-25T11:55:51.464Z,1.66
2017-05-25T11:58:18.444Z,1.50
2017-05-25T12:00:47.312Z,1.22
2017-05-25T12:03:14.247Z,1.28
2017-05-25T12:05:41.207Z,1.20
2017-05-25T12:08:08.173Z,1.56
2017-05-25T12:10:39.658Z,1.36
2017-05-25T12:13:07.771Z,1.66
2017-05-25T12:15:34.725Z,1.48
2017-05-25T12:18:02.652Z,1.58
2017-05-25T12:20:31.235Z,1.40
2017-05-25T12:22:59.007Z,1.20
2017-05-25T12:25:25.961Z,1.28
2017-05-25T12:27:54.208Z,1.50
2017-05-25T12:30:21.848Z,1.32
2017-05-25T12:32:50.689Z,1.52
2017-05-25T12:35:17.597Z,1.26
2017-05-25T12:37:44.585Z,1.32
2017-05-25T12:40:12.558Z,1.46
2017-05-25T12:42:39.494Z,1.70
2017-05-25T12:45:07.072Z,1.18
2017-05-25T12:47:34.019Z,1.60
2017-05-25T12:50:00.937Z,1.52
2017-05-25T12:52:27.911Z,1.42
2017-05-25T12:54:55.639Z,1.62
2017-05-25T12:57:23.339Z,1.48
2017-05-25T12:59:51.205Z,1.50
2017-05-25T13:02:18.168Z,1.20
2017-05-25T13:04:46.938Z,1.52
2017-05-25T13:07:14.003Z,1.30
2017-05-25T13:09:42.399Z,1.50
2017-05-25T13:12:09.331Z,1.58
2017-05-25T13:14:36.369Z,1.02
2017-05-25T13:17:03.302Z,1.36
2017-05-25T13:19:30.405Z,1.10
2017-05-25T13:21:57.782Z,1.10
2017-05-25T13:24:25.169Z,1.42
2017-05-25T13:26:52.161Z,1.24
2017-05-25T13:29:20.824Z,1.30
2017-05-25T13:31:49.571Z,1.06
2017-05-25T13:34:17.345Z,1.00
2017-05-25T13:36:44.289Z,1.40
2017-05-25T13:39:11.246Z,1.38
2017-05-25T13:41:38.152Z,1.12
2017-05-25T13:44:05.157Z,1.00
2017-05-25T13:46:32.112Z,1.56
2017-05-25T13:48:59.617Z,1.02
2017-05-25T13:51:28.332Z,1.10
2017-05-25T13:53:55.602Z,1.10
2017-05-25T13:56:23.655Z,1.24
2017-05-25T13:58:51.370Z,1.30
2017-05-25T14:01:19.456Z,1.22
2017-05-25T14:03:47.541Z,1.38
2017-05-25T14:06:15.176Z,1.14
2017-05-25T14:08:43.469Z,1.42
2017-05-25T14:11:10.407Z,1.14
2017-05-25T14:13:38.515Z,0.98
2017-05-25T14:16:09.316Z,0.84
2017-05-25T14:18:36.243Z,0.84
2017-05-25T14:21:04.830Z,0.80
2017-05-25T14:23:33.171Z,1.18
2017-05-25T14:26:01.871Z,1.16
2017-05-25T14:28:31.385Z,1.20
2017-05-25T14:30:59.255Z,0.62
2017-05-25T14:33:26.209Z,1.00
2017-05-25T14:35:53.231Z,0.90
2017-05-25T14:38:22.660Z,0.90
2017-05-25T14:40:49.590Z,1.40
2017-05-25T14:43:19.148Z,1.32
2017-05-25T14:45:50.357Z,1.30
2017-05-25T14:48:18.108Z,1.20
2017-05-25T14:50:45.631Z,2.04
2017-05-25T14:53:15.488Z,1.10
2017-05-25T14:55:42.431Z,1.00
2017-05-25T14:58:10.522Z,1.52
2017-05-25T15:00:37.495Z,1.44
2017-05-25T15:03:05.335Z,0.88
2017-05-25T15:05:34.400Z,1.00
2017-05-25T15:08:02.540Z,0.90
2017-05-25T15:10:32.373Z,1.16
2017-05-25T15:12:59.290Z,1.16
2017-05-25T15:15:28.183Z,1.04
2017-05-25T15:17:57.401Z,1.34
2017-05-25T15:20:26.720Z,1.06
2017-05-25T15:22:57.035Z,1.20
2017-05-25T15:25:26.003Z,1.50
2017-05-25T15:27:53.798Z,1.28
2017-05-25T15:30:22.475Z,1.22
2017-05-25T15:32:50.585Z,1.30
2017-05-25T15:35:18.293Z,2.94
2017-05-25T15:37:47.226Z,1.48
2017-05-25T15:40:15.093Z,1.28
2017-05-25T15:42:42.006Z,1.96
2017-05-25T15:45:09.939Z,1.50
2017-05-25T15:47:37.891Z,1.74
2017-05-25T15:50:05.282Z,1.42
2017-05-25T15:52:34.584Z,1.62
2017-05-25T16:04:48.448Z,1.72
2017-05-25T16:07:15.387Z,1.78
2017-05-25T16:09:43.624Z,1.92
2017-05-25T16:12:11.590Z,1.40
2017-05-25T16:14:40.764Z,1.26
2017-05-25T16:17:10.915Z,1.68
2017-05-25T16:19:38.747Z,1.38
2017-05-25T16:22:09.248Z,1.40
2017-05-25T16:24:36.896Z,1.60
2017-05-25T16:27:03.833Z,1.70
2017-05-25T16:29:30.775Z,2.32
2017-05-25T16:31:58.189Z,1.34
2017-05-25T16:44:15.308Z,1.52
2017-05-25T16:46:43.380Z,1.56
2017-05-25T16:49:12.928Z,1.52
2017-05-25T16:51:41.683Z,1.60
2017-05-25T16:54:08.877Z,1.50
2017-05-25T16:56:36.931Z,1.46
2017-05-25T16:59:03.873Z,1.76
2017-05-25T17:01:31.132Z,1.48
2017-05-25T17:04:00.481Z,1.76
2017-05-25T17:06:29.414Z,1.34
2017-05-25T17:08:56.382Z,2.40
2017-05-25T17:11:24.689Z,1.38
2017-05-25T17:13:52.312Z,1.86
2017-05-25T17:16:19.257Z,1.42
2017-05-25T17:18:47.609Z,2.30
2017-05-25T17:31:00.189Z,1.38
2017-05-25T17:33:28.866Z,1.80
2017-05-25T17:35:57.477Z,1.54
2017-05-25T17:38:24.445Z,1.64
2017-05-25T17:40:59.334Z,1.58
2017-05-25T17:43:28.083Z,1.42
2017-05-25T17:45:58.172Z,2.30
2017-05-25T17:48:25.895Z,2.00
2017-05-25T17:50:54.348Z,1.96
2017-05-25T17:53:21.340Z,2.54
2017-05-25T17:55:49.252Z,1.74
2017-05-25T17:58:18.149Z,2.62
2017-05-25T18:00:45.139Z,2.24
2017-05-25T18:12:58.578Z,1.72
2017-05-25T18:15:26.088Z,1.76
2017-05-25T18:17:54.680Z,2.12
2017-05-25T18:20:24.703Z,1.98
2017-05-25T18:22:52.412Z,2.44
2017-05-25T18:25:20.395Z,2.72
2017-05-25T18:27:48.276Z,2.26
2017-05-25T18:30:15.976Z,2.34
2017-05-25T18:42:32.974Z,2.46
2017-05-25T18:45:01.128Z,2.50
2017-05-25T18:47:30.107Z,2.74
2017-05-25T18:49:57.259Z,3.34
2017-05-25T18:52:24.966Z,2.92
2017-05-25T18:54:55.073Z,2.60
2017-05-25T18:57:22.820Z,2.42
2017-05-25T18:59:50.423Z,2.62
2017-05-25T19:02:19.046Z,2.70
2017-05-25T19:04:47.958Z,3.04
2017-05-25T19:07:18.822Z,2.62
2017-05-25T19:09:47.121Z,2.52
2017-05-25T19:12:16.078Z,2.98
2017-05-25T19:14:43.064Z,2.54
2017-05-25T19:17:11.900Z,3.18
2017-05-25T19:19:41.753Z,2.64
2017-05-25T19:22:09.728Z,3.00
2017-05-25T19:24:37.956Z,2.64
2017-05-25T19:27:06.756Z,3.18
2017-05-25T19:29:34.040Z,2.98
2017-05-25T19:32:01.995Z,3.00
2017-05-25T19:34:30.736Z,3.12
2017-05-25T19:36:59.144Z,2.82
2017-05-25T19:39:26.959Z,2.90
2017-05-25T19:41:56.885Z,2.46
2017-05-25T19:54:14.854Z,3.50
2017-05-25T19:56:44.009Z,3.02
2017-05-25T19:59:12.447Z,3.52
2017-05-25T20:01:41.051Z,3.48
2017-05-25T20:13:58.604Z,3.82
2017-05-25T20:16:26.148Z,3.22
2017-05-25T20:18:53.135Z,4.02
2017-05-25T20:21:21.685Z,3.48
2017-05-25T20:23:50.674Z,3.90
2017-05-25T20:26:17.709Z,3.72
2017-05-25T20:28:47.089Z,4.22
2017-05-25T20:31:15.038Z,4.22
2017-05-25T20:33:45.211Z,4.32
2017-05-25T20:36:15.251Z,5.18
2017-05-25T20:38:42.294Z,5.06
2017-05-25T20:41:11.339Z,5.56
2017-05-25T20:43:41.703Z,5.04
2017-05-25T20:46:11.024Z,4.86
2017-05-25T20:48:43.023Z,5.12
2017-05-25T20:51:11.206Z,4.92
2017-05-25T20:53:39.573Z,5.26
2017-05-25T20:56:09.162Z,5.16
2017-05-25T20:58:36.535Z,4.24
2017-05-25T21:01:05.434Z,5.30
2017-05-25T21:03:33.299Z,3.76
2017-05-25T21:06:00.294Z,3.62
2017-05-25T21:08:28.373Z,3.48
2017-05-25T21:10:56.312Z,3.24
2017-05-25T21:13:25.361Z,3.82
2017-05-25T21:15:53.541Z,3.54
2017-05-25T21:18:22.149Z,3.76
2017-05-25T21:20:49.133Z,3.84
2017-05-25T21:23:16.879Z,3.78
2017-05-25T21:25:48.776Z,3.88
2017-05-25T21:28:17.059Z,3.90
2017-05-25T21:30:45.873Z,3.94
2017-05-25T21:33:15.056Z,3.38
2017-05-25T21:36:00.527Z,3.70
2017-05-25T21:38:28.503Z,4.40
2017-05-25T21:40:57.449Z,3.80
2017-05-25T21:43:26.784Z,3.50
2017-05-25T21:45:54.533Z,3.30
2017-05-25T21:48:23.192Z,3.38
2017-05-25T21:50:50.384Z,3.08
2017-05-25T21:53:19.310Z,3.26
2017-05-25T21:55:48.697Z,3.20
2017-05-25T21:58:16.427Z,3.40
2017-05-25T22:00:43.951Z,3.18
2017-05-25T22:03:13.374Z,3.32
2017-05-25T22:05:40.371Z,3.42
2017-05-25T22:08:08.663Z,3.84
2017-05-25T22:10:36.430Z,3.38
2017-05-25T22:13:05.071Z,3.42
2017-05-25T22:25:19.180Z,3.38
2017-05-25T22:27:46.161Z,3.02
2017-05-25T22:30:13.478Z,3.78
2017-05-25T22:32:40.951Z,3.08
2017-05-25T22:35:08.995Z,3.52
2017-05-25T22:37:35.933Z,3.24
2017-05-25T22:40:04.638Z,3.06
2017-05-25T22:42:32.002Z,3.80
2017-05-25T22:45:01.105Z,3.82
2017-05-25T22:47:29.488Z,3.50
2017-05-25T22:49:57.431Z,3.94
2017-05-25T22:52:26.170Z,3.80
2017-05-25T22:54:54.415Z,3.20
2017-05-25T22:57:21.761Z,3.70
2017-05-25T22:59:51.728Z,3.16
2017-05-25T23:02:19.384Z,3.90
2017-05-25T23:04:46.548Z,3.82
2017-05-25T23:07:14.300Z,3.80
2017-05-25T23:09:41.307Z,3.66
2017-05-25T23:12:09.273Z,3.78
2017-05-25T23:14:37.222Z,3.90
2017-05-25T23:17:05.460Z,3.54
2017-05-25T23:19:33.899Z,3.94
2017-05-25T23:22:01.465Z,3.98
2017-05-25T23:24:30.565Z,3.92
2017-05-25T23:26:58.293Z,3.80
2017-05-25T23:29:29.467Z,3.90
2017-05-25T23:31:58.890Z,3.86
2017-05-25T23:34:25.924Z,3.16
2017-05-25T23:36:56.406Z,3.88
2017-05-25T23:39:23.744Z,3.88
2017-05-25T23:41:51.574Z,3.90
2017-05-25T23:44:20.387Z,3.98
2017-05-25T23:46:47.387Z,4.20
2017-05-25T23:49:14.446Z,3.58
2017-05-25T23:51:41.831Z,3.68
2017-05-25T23:54:09.676Z,3.30
2017-05-25T23:56:36.689Z,3.84
2017-05-25T23:59:05.670Z,3.28
